Sumisemaru No.5 — JE3162 — position and weather

sailwx.info

Track history (hours):
 
Tides and Currents Weather Stations Pressure Air Temp Water Temp Dewpoint Dewpoint Depression Visibility Wind Speed Wind Dir Waves Ship Positions

Sumisemaru No.5

Last reported at 2014-Nov-21 08:26 UTC. Time now 2014-Nov-24 04:01 UTC.
Position N 35°10' E 139°45'.

Length 96 m; draft 5.3 m.

Type: Cargo ship. MMSI: 431700423.

Date/timePositionNaut miles runAvg speedWind from/ knotsBaromVisibWave heightAir tempDewpointWater temp
2014-Nov-21 08:26N 35°10' E 139°45'1011.5
2014-Nov-21 07:34N 35°19' E 139°43'10 9.2
2014-Nov-21 06:32N 35°29' E 139°40'0 0.0
2014-Nov-21 05:32N 35°29' E 139°40'0 0.0
2014-Nov-21 04:32N 35°29' E 139°40'0 0.0
2014-Nov-21 03:32N 35°29' E 139°40'0 0.0
2014-Nov-21 02:32N 35°29' E 139°40'0 0.5
2014-Nov-21 01:33N 35°28' E 139°40'10 9.9
2014-Nov-21 00:33N 35°19' E 139°44'1110.6
2014-Nov-20 23:32N 35°08' E 139°46'  
2014-Nov-14 14:16N 35°10' E 139°45'1911.2
2014-Nov-14 12:33N 35°29' E 139°40'0 0.1
2014-Nov-14 11:33N 35°29' E 139°40'0 0.0
2014-Nov-14 10:33N 35°29' E 139°40'0 0.0
2014-Nov-14 09:33N 35°29' E 139°40'0 0.0
2014-Nov-14 08:33N 35°29' E 139°40'3 3.0
2014-Nov-14 07:34N 35°26' E 139°42'1 1.0
2014-Nov-14 06:29N 35°26' E 139°41'0 0.0
2014-Nov-14 05:32N 35°26' E 139°41'0 0.0
2014-Nov-14 04:32N 35°26' E 139°41'0 0.0
2014-Nov-14 03:32N 35°26' E 139°41'0 0.0
2014-Nov-14 02:32N 35°26' E 139°41'0 0.0
2014-Nov-14 01:32N 35°26' E 139°41'0 0.0
2014-Nov-14 00:32N 35°26' E 139°41'0 0.0
2014-Nov-13 23:32N 35°26' E 139°41'1 0.7
2014-Nov-13 22:33N 35°26' E 139°42'0 0.0
2014-Nov-13 21:33N 35°26' E 139°42'0 0.0
2014-Nov-13 20:33N 35°26' E 139°42'0 0.0
2014-Nov-13 19:33N 35°26' E 139°42'0 0.0
2014-Nov-13 18:33N 35°26' E 139°42'0 0.0
2014-Nov-13 17:33N 35°26' E 139°42'0 0.0
2014-Nov-13 16:33N 35°26' E 139°42'0 0.0
2014-Nov-13 15:30N 35°26' E 139°42'0 0.0
2014-Nov-13 14:33N 35°26' E 139°42'0 0.0
2014-Nov-13 13:33N 35°26' E 139°42'0 0.0
2014-Nov-13 12:30N 35°26' E 139°42'0 0.0
2014-Nov-13 11:15N 35°26' E 139°42'0 0.0
2014-Nov-13 10:33N 35°26' E 139°42'0 0.1
2014-Nov-13 09:33N 35°26' E 139°42'0 0.0
2014-Nov-13 08:30N 35°26' E 139°42'0 0.0
2014-Nov-13 07:33N 35°26' E 139°42'8 8.2
2014-Nov-13 06:33N 35°18' E 139°45'  
Track history (hours):
 
Tides and Currents Weather Stations Pressure Air Temp Water Temp Dewpoint Dewpoint Depression Visibility Wind Speed Wind Dir Waves Ship Positions

Sumisemaru No.5

Last reported at 2014-Nov-21 08:26 UTC. Time now 2014-Nov-24 04:01 UTC.
Position N 35°10' E 139°45'.

Length 96 m; draft 5.3 m.

Type: Cargo ship. MMSI: 431700423.

Date/timePositionNaut miles runAvg speedWind from/ knotsBaromVisibWave heightAir tempDewpointWater temp
2014-Nov-21 08:26N 35°10' E 139°45'1011.5
2014-Nov-21 07:34N 35°19' E 139°43'10 9.2
2014-Nov-21 06:32N 35°29' E 139°40'0 0.0
2014-Nov-21 05:32N 35°29' E 139°40'0 0.0
2014-Nov-21 04:32N 35°29' E 139°40'0 0.0
2014-Nov-21 03:32N 35°29' E 139°40'0 0.0
2014-Nov-21 02:32N 35°29' E 139°40'0 0.5
2014-Nov-21 01:33N 35°28' E 139°40'10 9.9
2014-Nov-21 00:33N 35°19' E 139°44'1110.6
2014-Nov-20 23:32N 35°08' E 139°46'  
2014-Nov-14 14:16N 35°10' E 139°45'1911.2
2014-Nov-14 12:33N 35°29' E 139°40'0 0.1
2014-Nov-14 11:33N 35°29' E 139°40'0 0.0
2014-Nov-14 10:33N 35°29' E 139°40'0 0.0
2014-Nov-14 09:33N 35°29' E 139°40'0 0.0
2014-Nov-14 08:33N 35°29' E 139°40'3 3.0
2014-Nov-14 07:34N 35°26' E 139°42'1 1.0
2014-Nov-14 06:29N 35°26' E 139°41'0 0.0
2014-Nov-14 05:32N 35°26' E 139°41'0 0.0
2014-Nov-14 04:32N 35°26' E 139°41'0 0.0
2014-Nov-14 03:32N 35°26' E 139°41'0 0.0
2014-Nov-14 02:32N 35°26' E 139°41'0 0.0
2014-Nov-14 01:32N 35°26' E 139°41'0 0.0
2014-Nov-14 00:32N 35°26' E 139°41'0 0.0
2014-Nov-13 23:32N 35°26' E 139°41'1 0.7
2014-Nov-13 22:33N 35°26' E 139°42'0 0.0
2014-Nov-13 21:33N 35°26' E 139°42'0 0.0
2014-Nov-13 20:33N 35°26' E 139°42'0 0.0
2014-Nov-13 19:33N 35°26' E 139°42'0 0.0
2014-Nov-13 18:33N 35°26' E 139°42'0 0.0
2014-Nov-13 17:33N 35°26' E 139°42'0 0.0
2014-Nov-13 16:33N 35°26' E 139°42'0 0.0
2014-Nov-13 15:30N 35°26' E 139°42'0 0.0
2014-Nov-13 14:33N 35°26' E 139°42'0 0.0
2014-Nov-13 13:33N 35°26' E 139°42'0 0.0
2014-Nov-13 12:30N 35°26' E 139°42'0 0.0
2014-Nov-13 11:15N 35°26' E 139°42'0 0.0
2014-Nov-13 10:33N 35°26' E 139°42'0 0.1
2014-Nov-13 09:33N 35°26' E 139°42'0 0.0
2014-Nov-13 08:30N 35°26' E 139°42'0 0.0
2014-Nov-13 07:33N 35°26' E 139°42'8 8.2
2014-Nov-13 06:33N 35°18' E 139°45'  

Dump ship's entire track history